sensor_id;sensor_type;location;lat;lon;timestamp;temperature;humidity
336;DHT22;156;48.738;9.228;2023-02-24T00:01:32;9.00;77.90
336;DHT22;156;48.738;9.228;2023-02-24T00:04:04;9.00;77.50
336;DHT22;156;48.738;9.228;2023-02-24T00:06:33;9.00;77.10
336;DHT22;156;48.738;9.228;2023-02-24T00:09:04;8.90;77.70
336;DHT22;156;48.738;9.228;2023-02-24T00:11:33;8.90;78.20
336;DHT22;156;48.738;9.228;2023-02-24T00:14:01;8.90;78.80
336;DHT22;156;48.738;9.228;2023-02-24T00:16:30;8.90;79.00
336;DHT22;156;48.738;9.228;2023-02-24T00:18:57;8.80;80.60
336;DHT22;156;48.738;9.228;2023-02-24T00:21:25;8.80;82.90
336;DHT22;156;48.738;9.228;2023-02-24T00:23:53;8.80;83.80
336;DHT22;156;48.738;9.228;2023-02-24T00:26:21;8.80;85.40
336;DHT22;156;48.738;9.228;2023-02-24T00:28:48;8.80;87.60
336;DHT22;156;48.738;9.228;2023-02-24T00:31:17;8.80;89.00
336;DHT22;156;48.738;9.228;2023-02-24T00:33:45;8.80;90.50
336;DHT22;156;48.738;9.228;2023-02-24T00:36:14;8.80;91.10
336;DHT22;156;48.738;9.228;2023-02-24T00:38:42;8.80;91.40
336;DHT22;156;48.738;9.228;2023-02-24T00:41:14;8.80;92.30
336;DHT22;156;48.738;9.228;2023-02-24T00:43:44;8.80;94.00
336;DHT22;156;48.738;9.228;2023-02-24T00:46:13;8.80;95.40
336;DHT22;156;48.738;9.228;2023-02-24T00:48:43;8.80;96.20
336;DHT22;156;48.738;9.228;2023-02-24T00:51:12;8.80;97.80
336;DHT22;156;48.738;9.228;2023-02-24T00:53:41;8.70;99.30
336;DHT22;156;48.738;9.228;2023-02-24T00:56:09;8.70;99.90
336;DHT22;156;48.738;9.228;2023-02-24T00:58:38;8.70;99.90
336;DHT22;156;48.738;9.228;2023-02-24T01:01:11;8.70;99.90
336;DHT22;156;48.738;9.228;2023-02-24T01:03:38;8.60;99.90
336;DHT22;156;48.738;9.228;2023-02-24T01:06:05;8.60;99.90
336;DHT22;156;48.738;9.228;2023-02-24T01:08:32;8.60;99.90
336;DHT22;156;48.738;9.228;2023-02-24T01:11:01;8.60;99.90
336;DHT22;156;48.738;9.228;2023-02-24T01:13:46;8.60;99.90
336;DHT22;156;48.738;9.228;2023-02-24T01:16:15;8.60;99.90
336;DHT22;156;48.738;9.228;2023-02-24T01:18:44;8.60;99.90
336;DHT22;156;48.738;9.228;2023-02-24T01:21:12;8.50;99.90
336;DHT22;156;48.738;9.228;2023-02-24T01:23:39;8.60;99.90
336;DHT22;156;48.738;9.228;2023-02-24T01:26:06;8.50;99.90
336;DHT22;156;48.738;9.228;2023-02-24T01:28:34;8.50;99.90
336;DHT22;156;48.738;9.228;2023-02-24T01:31:03;8.50;99.90
336;DHT22;156;48.738;9.228;2023-02-24T01:33:32;8.40;99.90
336;DHT22;156;48.738;9.228;2023-02-24T01:36:08;8.40;99.90
336;DHT22;156;48.738;9.228;2023-02-24T01:38:35;8.40;99.90
336;DHT22;156;48.738;9.228;2023-02-24T01:41:04;8.40;99.90
336;DHT22;156;48.738;9.228;2023-02-24T01:43:32;8.40;99.90
336;DHT22;156;48.738;9.228;2023-02-24T01:45:59;8.30;99.90
336;DHT22;156;48.738;9.228;2023-02-24T01:48:27;8.30;99.90
336;DHT22;156;48.738;9.228;2023-02-24T01:50:57;8.40;99.90
336;DHT22;156;48.738;9.228;2023-02-24T01:53:24;8.30;99.90
336;DHT22;156;48.738;9.228;2023-02-24T01:55:51;8.30;99.90
336;DHT22;156;48.738;9.228;2023-02-24T01:58:21;8.30;99.90
336;DHT22;156;48.738;9.228;2023-02-24T02:00:49;8.30;99.90
336;DHT22;156;48.738;9.228;2023-02-24T02:03:25;8.30;99.90
336;DHT22;156;48.738;9.228;2023-02-24T02:05:59;8.30;99.90
336;DHT22;156;48.738;9.228;2023-02-24T02:08:26;8.30;99.90
336;DHT22;156;48.738;9.228;2023-02-24T02:10:55;8.30;99.90
336;DHT22;156;48.738;9.228;2023-02-24T02:13:25;8.30;99.90
336;DHT22;156;48.738;9.228;2023-02-24T02:16:05;8.20;99.90
336;DHT22;156;48.738;9.228;2023-02-24T02:18:44;8.20;99.90
336;DHT22;156;48.738;9.228;2023-02-24T02:21:42;8.10;99.90
336;DHT22;156;48.738;9.228;2023-02-24T02:24:30;8.10;99.90
336;DHT22;156;48.738;9.228;2023-02-24T02:27:26;8.10;99.90
336;DHT22;156;48.738;9.228;2023-02-24T02:36:10;8.10;99.90
336;DHT22;156;48.738;9.228;2023-02-24T02:38:45;8.10;99.90
336;DHT22;156;48.738;9.228;2023-02-24T02:41:20;8.10;99.90
336;DHT22;156;48.738;9.228;2023-02-24T02:43:51;8.10;99.90
336;DHT22;156;48.738;9.228;2023-02-24T02:46:25;8.10;99.90
336;DHT22;156;48.738;9.228;2023-02-24T02:49:03;8.00;99.90
336;DHT22;156;48.738;9.228;2023-02-24T02:51:37;8.00;99.90
336;DHT22;156;48.738;9.228;2023-02-24T02:54:08;8.00;99.90
336;DHT22;156;48.738;9.228;2023-02-24T02:56:41;8.00;99.90
336;DHT22;156;48.738;9.228;2023-02-24T02:59:10;8.00;99.90
336;DHT22;156;48.738;9.228;2023-02-24T03:01:41;8.00;99.90
336;DHT22;156;48.738;9.228;2023-02-24T03:04:12;7.90;99.90
336;DHT22;156;48.738;9.228;2023-02-24T03:06:45;7.90;99.90
336;DHT22;156;48.738;9.228;2023-02-24T03:09:17;7.90;99.90
336;DHT22;156;48.738;9.228;2023-02-24T03:11:46;7.90;99.90
336;DHT22;156;48.738;9.228;2023-02-24T03:14:19;7.90;99.90
336;DHT22;156;48.738;9.228;2023-02-24T03:16:49;8.00;99.90
336;DHT22;156;48.738;9.228;2023-02-24T03:19:21;8.10;99.90
336;DHT22;156;48.738;9.228;2023-02-24T03:21:57;8.00;99.90
336;DHT22;156;48.738;9.228;2023-02-24T03:24:25;8.00;99.90
336;DHT22;156;48.738;9.228;2023-02-24T03:27:00;8.00;99.90
336;DHT22;156;48.738;9.228;2023-02-24T03:29:36;8.00;99.90
336;DHT22;156;48.738;9.228;2023-02-24T03:32:07;8.00;99.90
336;DHT22;156;48.738;9.228;2023-02-24T03:34:40;8.00;99.90
336;DHT22;156;48.738;9.228;2023-02-24T03:37:12;8.00;99.90
336;DHT22;156;48.738;9.228;2023-02-24T03:39:40;8.00;99.90
336;DHT22;156;48.738;9.228;2023-02-24T03:42:10;8.00;99.90
336;DHT22;156;48.738;9.228;2023-02-24T03:44:38;8.00;99.90
336;DHT22;156;48.738;9.228;2023-02-24T03:47:05;8.10;99.90
336;DHT22;156;48.738;9.228;2023-02-24T03:49:34;8.20;99.90
336;DHT22;156;48.738;9.228;2023-02-24T03:52:09;8.30;99.90
336;DHT22;156;48.738;9.228;2023-02-24T03:55:01;8.30;99.90
336;DHT22;156;48.738;9.228;2023-02-24T03:57:38;8.30;99.90
336;DHT22;156;48.738;9.228;2023-02-24T04:00:24;8.40;99.90
336;DHT22;156;48.738;9.228;2023-02-24T04:03:05;8.50;99.90
336;DHT22;156;48.738;9.228;2023-02-24T04:05:40;8.50;99.90
336;DHT22;156;48.738;9.228;2023-02-24T04:08:12;8.70;99.90
336;DHT22;156;48.738;9.228;2023-02-24T04:10:47;8.70;99.90
336;DHT22;156;48.738;9.228;2023-02-24T04:13:21;8.80;99.90
336;DHT22;156;48.738;9.228;2023-02-24T04:15:57;8.80;99.90
336;DHT22;156;48.738;9.228;2023-02-24T04:18:28;8.90;97.20
336;DHT22;156;48.738;9.228;2023-02-24T04:20:58;8.90;95.40
336;DHT22;156;48.738;9.228;2023-02-24T04:23:30;8.90;91.40
336;DHT22;156;48.738;9.228;2023-02-24T04:26:00;8.90;90.10
336;DHT22;156;48.738;9.228;2023-02-24T04:28:28;8.80;88.90
336;DHT22;156;48.738;9.228;2023-02-24T04:30:59;8.70;90.80
336;DHT22;156;48.738;9.228;2023-02-24T04:33:30;8.50;92.60
336;DHT22;156;48.738;9.228;2023-02-24T04:35:57;8.50;96.50
336;DHT22;156;48.738;9.228;2023-02-24T04:38:24;8.50;97.40
336;DHT22;156;48.738;9.228;2023-02-24T04:40:51;8.40;99.50
336;DHT22;156;48.738;9.228;2023-02-24T04:43:21;8.30;99.90
336;DHT22;156;48.738;9.228;2023-02-24T04:45:48;8.20;99.90
336;DHT22;156;48.738;9.228;2023-02-24T04:48:16;8.10;99.90
336;DHT22;156;48.738;9.228;2023-02-24T04:50:45;8.00;99.90
336;DHT22;156;48.738;9.228;2023-02-24T04:53:14;8.00;99.90
336;DHT22;156;48.738;9.228;2023-02-24T04:55:43;7.80;99.90
336;DHT22;156;48.738;9.228;2023-02-24T04:58:15;7.80;99.90
336;DHT22;156;48.738;9.228;2023-02-24T05:00:46;7.80;99.90
336;DHT22;156;48.738;9.228;2023-02-24T05:03:14;7.80;99.90
336;DHT22;156;48.738;9.228;2023-02-24T05:05:47;7.70;99.90
336;DHT22;156;48.738;9.228;2023-02-24T05:08:17;7.80;99.90
336;DHT22;156;48.738;9.228;2023-02-24T05:10:45;7.80;99.90
336;DHT22;156;48.738;9.228;2023-02-24T05:13:14;7.80;99.90
336;DHT22;156;48.738;9.228;2023-02-24T05:15:42;7.80;99.90
336;DHT22;156;48.738;9.228;2023-02-24T05:18:13;7.80;99.90
336;DHT22;156;48.738;9.228;2023-02-24T05:20:43;7.80;99.90
336;DHT22;156;48.738;9.228;2023-02-24T05:23:29;7.80;99.90
336;DHT22;156;48.738;9.228;2023-02-24T05:25:58;7.80;99.90
336;DHT22;156;48.738;9.228;2023-02-24T05:28:25;7.70;99.90
336;DHT22;156;48.738;9.228;2023-02-24T05:31:03;7.80;99.90
336;DHT22;156;48.738;9.228;2023-02-24T05:33:34;7.80;99.90
336;DHT22;156;48.738;9.228;2023-02-24T05:36:03;7.90;99.90
336;DHT22;156;48.738;9.228;2023-02-24T05:38:33;7.90;99.90
336;DHT22;156;48.738;9.228;2023-02-24T05:41:06;7.90;99.90
336;DHT22;156;48.738;9.228;2023-02-24T05:43:33;8.00;99.90
336;DHT22;156;48.738;9.228;2023-02-24T05:46:03;7.90;99.90
336;DHT22;156;48.738;9.228;2023-02-24T05:48:31;7.80;99.90
336;DHT22;156;48.738;9.228;2023-02-24T05:51:02;7.80;99.90
336;DHT22;156;48.738;9.228;2023-02-24T05:53:32;7.80;99.90
336;DHT22;156;48.738;9.228;2023-02-24T05:55:59;7.90;99.90
336;DHT22;156;48.738;9.228;2023-02-24T05:58:26;7.90;99.90
336;DHT22;156;48.738;9.228;2023-02-24T06:00:53;7.90;99.90
336;DHT22;156;48.738;9.228;2023-02-24T06:03:23;7.90;99.90
336;DHT22;156;48.738;9.228;2023-02-24T06:05:55;7.90;99.90
336;DHT22;156;48.738;9.228;2023-02-24T06:08:25;7.90;99.90
336;DHT22;156;48.738;9.228;2023-02-24T06:10:52;7.90;99.90
336;DHT22;156;48.738;9.228;2023-02-24T06:13:19;7.90;99.90
336;DHT22;156;48.738;9.228;2023-02-24T06:15:46;8.00;99.90
336;DHT22;156;48.738;9.228;2023-02-24T06:18:14;8.00;99.90
336;DHT22;156;48.738;9.228;2023-02-24T06:20:42;8.00;99.90
336;DHT22;156;48.738;9.228;2023-02-24T06:23:15;7.90;99.90
336;DHT22;156;48.738;9.228;2023-02-24T06:25:44;7.80;99.90
336;DHT22;156;48.738;9.228;2023-02-24T06:28:11;7.80;99.90
336;DHT22;156;48.738;9.228;2023-02-24T06:30:37;7.70;99.90
336;DHT22;156;48.738;9.228;2023-02-24T06:33:04;7.70;99.90
336;DHT22;156;48.738;9.228;2023-02-24T06:35:31;7.70;99.90
336;DHT22;156;48.738;9.228;2023-02-24T06:37:58;7.70;99.90
336;DHT22;156;48.738;9.228;2023-02-24T06:40:25;7.70;99.90
336;DHT22;156;48.738;9.228;2023-02-24T06:42:53;7.70;99.90
336;DHT22;156;48.738;9.228;2023-02-24T06:45:21;7.70;99.90
336;DHT22;156;48.738;9.228;2023-02-24T06:47:48;7.70;99.90
336;DHT22;156;48.738;9.228;2023-02-24T06:50:16;7.70;99.90
336;DHT22;156;48.738;9.228;2023-02-24T06:52:44;7.70;99.90
336;DHT22;156;48.738;9.228;2023-02-24T06:55:12;7.70;99.90
336;DHT22;156;48.738;9.228;2023-02-24T06:57:53;7.80;99.90
336;DHT22;156;48.738;9.228;2023-02-24T07:00:24;7.90;99.90
336;DHT22;156;48.738;9.228;2023-02-24T07:03:03;7.80;99.90
336;DHT22;156;48.738;9.228;2023-02-24T07:05:43;7.70;99.90
336;DHT22;156;48.738;9.228;2023-02-24T07:08:16;7.70;99.90
336;DHT22;156;48.738;9.228;2023-02-24T07:10:43;7.70;99.90
336;DHT22;156;48.738;9.228;2023-02-24T07:13:11;7.70;99.90
336;DHT22;156;48.738;9.228;2023-02-24T07:15:40;7.70;99.90
336;DHT22;156;48.738;9.228;2023-02-24T07:18:14;7.80;99.90
336;DHT22;156;48.738;9.228;2023-02-24T07:20:41;8.00;99.90
336;DHT22;156;48.738;9.228;2023-02-24T07:23:11;8.20;99.90
336;DHT22;156;48.738;9.228;2023-02-24T07:25:38;8.30;99.90
336;DHT22;156;48.738;9.228;2023-02-24T07:28:08;8.40;99.90
336;DHT22;156;48.738;9.228;2023-02-24T07:30:37;8.40;99.90
336;DHT22;156;48.738;9.228;2023-02-24T07:33:05;8.50;99.90
336;DHT22;156;48.738;9.228;2023-02-24T07:35:32;8.30;99.90
336;DHT22;156;48.738;9.228;2023-02-24T07:38:00;8.20;99.90
336;DHT22;156;48.738;9.228;2023-02-24T07:40:29;8.30;99.90
336;DHT22;156;48.738;9.228;2023-02-24T07:42:58;8.20;99.90
336;DHT22;156;48.738;9.228;2023-02-24T07:45:25;8.20;99.90
336;DHT22;156;48.738;9.228;2023-02-24T07:47:53;8.30;99.90
336;DHT22;156;48.738;9.228;2023-02-24T07:50:20;8.40;99.90
336;DHT22;156;48.738;9.228;2023-02-24T07:52:48;8.30;99.90
336;DHT22;156;48.738;9.228;2023-02-24T07:55:16;8.20;99.90
336;DHT22;156;48.738;9.228;2023-02-24T07:57:45;8.10;99.90
336;DHT22;156;48.738;9.228;2023-02-24T08:00:15;8.10;99.90
336;DHT22;156;48.738;9.228;2023-02-24T08:02:44;8.20;99.90
336;DHT22;156;48.738;9.228;2023-02-24T08:05:13;8.20;99.90
336;DHT22;156;48.738;9.228;2023-02-24T08:07:40;8.10;99.90
336;DHT22;156;48.738;9.228;2023-02-24T08:10:08;8.00;99.90
336;DHT22;156;48.738;9.228;2023-02-24T08:12:39;8.00;99.90
336;DHT22;156;48.738;9.228;2023-02-24T08:15:08;7.90;99.90
336;DHT22;156;48.738;9.228;2023-02-24T08:17:42;8.00;99.90
336;DHT22;156;48.738;9.228;2023-02-24T08:20:10;8.10;99.90
336;DHT22;156;48.738;9.228;2023-02-24T08:22:56;8.20;99.90
336;DHT22;156;48.738;9.228;2023-02-24T08:25:25;8.20;99.90
336;DHT22;156;48.738;9.228;2023-02-24T08:28:00;8.10;99.90
336;DHT22;156;48.738;9.228;2023-02-24T08:30:31;8.30;99.90
336;DHT22;156;48.738;9.228;2023-02-24T08:33:03;8.10;99.90
336;DHT22;156;48.738;9.228;2023-02-24T08:35:32;8.00;99.90
336;DHT22;156;48.738;9.228;2023-02-24T08:38:04;8.10;99.90
336;DHT22;156;48.738;9.228;2023-02-24T08:40:34;8.10;99.90
336;DHT22;156;48.738;9.228;2023-02-24T08:43:17;8.10;99.90
336;DHT22;156;48.738;9.228;2023-02-24T08:45:47;8.20;99.90
336;DHT22;156;48.738;9.228;2023-02-24T08:48:18;8.30;99.90
336;DHT22;156;48.738;9.228;2023-02-24T08:50:58;8.40;99.90
336;DHT22;156;48.738;9.228;2023-02-24T08:53:26;8.50;99.90
336;DHT22;156;48.738;9.228;2023-02-24T08:55:57;8.40;99.90
336;DHT22;156;48.738;9.228;2023-02-24T08:58:25;8.40;99.90
336;DHT22;156;48.738;9.228;2023-02-24T09:00:53;8.50;99.90
336;DHT22;156;48.738;9.228;2023-02-24T09:03:23;8.70;99.90
336;DHT22;156;48.738;9.228;2023-02-24T09:06:00;8.80;99.90
336;DHT22;156;48.738;9.228;2023-02-24T09:08:31;8.80;99.90
336;DHT22;156;48.738;9.228;2023-02-24T09:11:00;8.90;99.90
336;DHT22;156;48.738;9.228;2023-02-24T09:13:35;9.00;94.30
336;DHT22;156;48.738;9.228;2023-02-24T09:16:08;9.20;83.00
336;DHT22;156;48.738;9.228;2023-02-24T09:18:41;9.30;73.40
336;DHT22;156;48.738;9.228;2023-02-24T09:21:09;9.30;62.60
336;DHT22;156;48.738;9.228;2023-02-24T09:24:03;9.50;56.20
336;DHT22;156;48.738;9.228;2023-02-24T09:26:32;9.60;52.90
336;DHT22;156;48.738;9.228;2023-02-24T09:29:08;9.40;22.20
336;DHT22;156;48.738;9.228;2023-02-24T09:31:56;9.10;29.80
336;DHT22;156;48.738;9.228;2023-02-24T09:34:29;9.10;27.20
336;DHT22;156;48.738;9.228;2023-02-24T09:36:56;9.10;24.80
336;DHT22;156;48.738;9.228;2023-02-24T09:39:30;9.20;27.90
336;DHT22;156;48.738;9.228;2023-02-24T09:42:18;9.30;26.10
336;DHT22;156;48.738;9.228;2023-02-24T09:45:13;9.40;22.30
336;DHT22;156;48.738;9.228;2023-02-24T09:47:45;9.50;22.20
336;DHT22;156;48.738;9.228;2023-02-24T09:50:28;9.40;14.60
336;DHT22;156;48.738;9.228;2023-02-24T09:53:11;9.30;9.60
336;DHT22;156;48.738;9.228;2023-02-24T09:55:48;9.20;9.80
336;DHT22;156;48.738;9.228;2023-02-24T09:58:38;9.30;4.90
336;DHT22;156;48.738;9.228;2023-02-24T10:01:29;9.40;1.00
336;DHT22;156;48.738;9.228;2023-02-24T10:04:05;9.30;1.00
336;DHT22;156;48.738;9.228;2023-02-24T10:06:39;9.30;1.00
336;DHT22;156;48.738;9.228;2023-02-24T10:09:17;9.20;1.00
336;DHT22;156;48.738;9.228;2023-02-24T10:11:53;9.20;1.00
336;DHT22;156;48.738;9.228;2023-02-24T10:14:26;9.30;1.00
336;DHT22;156;48.738;9.228;2023-02-24T10:16:57;9.40;2.90
336;DHT22;156;48.738;9.228;2023-02-24T10:19:38;9.60;10.40
336;DHT22;156;48.738;9.228;2023-02-24T10:22:12;9.40;1.00
336;DHT22;156;48.738;9.228;2023-02-24T10:24:54;9.50;1.00
336;DHT22;156;48.738;9.228;2023-02-24T10:27:43;9.60;1.00
336;DHT22;156;48.738;9.228;2023-02-24T10:30:27;9.70;1.00
336;DHT22;156;48.738;9.228;2023-02-24T10:33:17;9.80;1.00
336;DHT22;156;48.738;9.228;2023-02-24T10:35:45;9.70;1.00
336;DHT22;156;48.738;9.228;2023-02-24T10:38:13;9.50;1.00
336;DHT22;156;48.738;9.228;2023-02-24T10:40:45;9.50;1.00
336;DHT22;156;48.738;9.228;2023-02-24T10:43:24;10.00;1.00
336;DHT22;156;48.738;9.228;2023-02-24T10:45:57;9.50;1.00
336;DHT22;156;48.738;9.228;2023-02-24T10:48:32;9.40;1.00
336;DHT22;156;48.738;9.228;2023-02-24T10:51:12;9.40;1.00
336;DHT22;156;48.738;9.228;2023-02-24T10:53:46;9.50;1.00
336;DHT22;156;48.738;9.228;2023-02-24T10:56:19;9.40;5.70
336;DHT22;156;48.738;9.228;2023-02-24T10:59:10;9.20;19.80
336;DHT22;156;48.738;9.228;2023-02-24T11:02:17;9.20;28.40
336;DHT22;156;48.738;9.228;2023-02-24T11:04:55;9.30;29.90
336;DHT22;156;48.738;9.228;2023-02-24T11:07:49;9.30;26.70
336;DHT22;156;48.738;9.228;2023-02-24T11:10:21;9.30;21.90
336;DHT22;156;48.738;9.228;2023-02-24T11:12:58;9.30;13.90
336;DHT22;156;48.738;9.228;2023-02-24T11:15:46;9.20;12.50
336;DHT22;156;48.738;9.228;2023-02-24T11:18:32;9.20;11.00
336;DHT22;156;48.738;9.228;2023-02-24T11:21:01;9.20;9.80
336;DHT22;156;48.738;9.228;2023-02-24T11:23:33;9.20;9.10
336;DHT22;156;48.738;9.228;2023-02-24T11:26:02;9.20;8.50
336;DHT22;156;48.738;9.228;2023-02-24T11:28:49;9.20;8.70
336;DHT22;156;48.738;9.228;2023-02-24T11:31:37;9.20;8.00
336;DHT22;156;48.738;9.228;2023-02-24T11:34:09;9.20;9.50
336;DHT22;156;48.738;9.228;2023-02-24T11:36:44;9.30;11.00
336;DHT22;156;48.738;9.228;2023-02-24T11:39:37;9.20;13.50
336;DHT22;156;48.738;9.228;2023-02-24T11:42:11;9.20;16.00
336;DHT22;156;48.738;9.228;2023-02-24T11:44:45;9.20;17.20
336;DHT22;156;48.738;9.228;2023-02-24T11:47:19;9.30;15.10
336;DHT22;156;48.738;9.228;2023-02-24T11:49:50;9.30;14.10
336;DHT22;156;48.738;9.228;2023-02-24T11:52:22;9.30;9.80
336;DHT22;156;48.738;9.228;2023-02-24T11:54:55;9.30;9.80
336;DHT22;156;48.738;9.228;2023-02-24T11:57:27;9.30;10.00
336;DHT22;156;48.738;9.228;2023-02-24T12:00:02;9.30;10.70
336;DHT22;156;48.738;9.228;2023-02-24T12:02:38;9.40;10.40
336;DHT22;156;48.738;9.228;2023-02-24T12:05:12;9.60;9.60
336;DHT22;156;48.738;9.228;2023-02-24T12:07:44;9.80;1.00
336;DHT22;156;48.738;9.228;2023-02-24T12:10:18;9.90;1.00
336;DHT22;156;48.738;9.228;2023-02-24T12:12:50;10.00;1.00
336;DHT22;156;48.738;9.228;2023-02-24T12:15:23;10.10;1.00
336;DHT22;156;48.738;9.228;2023-02-24T12:17:57;10.10;1.00
336;DHT22;156;48.738;9.228;2023-02-24T12:20:29;10.30;1.00
336;DHT22;156;48.738;9.228;2023-02-24T12:23:04;10.40;1.00
336;DHT22;156;48.738;9.228;2023-02-24T12:25:45;10.50;1.00
336;DHT22;156;48.738;9.228;2023-02-24T12:28:21;10.60;1.00
336;DHT22;156;48.738;9.228;2023-02-24T12:30:58;10.80;1.00
336;DHT22;156;48.738;9.228;2023-02-24T12:33:45;10.60;1.00
336;DHT22;156;48.738;9.228;2023-02-24T12:36:23;10.60;1.00
336;DHT22;156;48.738;9.228;2023-02-24T12:38:59;10.70;1.00
336;DHT22;156;48.738;9.228;2023-02-24T12:42:06;10.60;1.00
336;DHT22;156;48.738;9.228;2023-02-24T12:44:43;11.00;1.00
336;DHT22;156;48.738;9.228;2023-02-24T12:47:16;11.20;1.00
336;DHT22;156;48.738;9.228;2023-02-24T12:50:08;11.30;1.00
336;DHT22;156;48.738;9.228;2023-02-24T12:52:51;10.90;1.00
336;DHT22;156;48.738;9.228;2023-02-24T12:55:22;10.80;1.00
336;DHT22;156;48.738;9.228;2023-02-24T12:57:59;10.70;1.00
336;DHT22;156;48.738;9.228;2023-02-24T13:00:34;10.70;1.00
336;DHT22;156;48.738;9.228;2023-02-24T13:03:16;10.70;1.00
336;DHT22;156;48.738;9.228;2023-02-24T13:05:53;10.40;1.00
336;DHT22;156;48.738;9.228;2023-02-24T13:08:27;10.20;1.00
336;DHT22;156;48.738;9.228;2023-02-24T13:11:02;9.90;1.00
336;DHT22;156;48.738;9.228;2023-02-24T13:13:41;10.00;1.00
336;DHT22;156;48.738;9.228;2023-02-24T13:16:11;10.10;1.00
336;DHT22;156;48.738;9.228;2023-02-24T13:18:38;10.10;1.00
336;DHT22;156;48.738;9.228;2023-02-24T13:21:17;10.30;1.00
336;DHT22;156;48.738;9.228;2023-02-24T13:23:53;10.40;1.00
336;DHT22;156;48.738;9.228;2023-02-24T13:26:21;10.60;1.00
336;DHT22;156;48.738;9.228;2023-02-24T13:28:58;10.80;1.00
336;DHT22;156;48.738;9.228;2023-02-24T13:31:25;10.80;1.00
336;DHT22;156;48.738;9.228;2023-02-24T13:33:52;10.90;1.00
336;DHT22;156;48.738;9.228;2023-02-24T13:36:22;10.90;1.00
336;DHT22;156;48.738;9.228;2023-02-24T13:38:51;10.80;1.00
336;DHT22;156;48.738;9.228;2023-02-24T13:41:39;10.90;1.00
336;DHT22;156;48.738;9.228;2023-02-24T13:44:26;10.90;1.00
336;DHT22;156;48.738;9.228;2023-02-24T13:47:26;10.80;1.00
336;DHT22;156;48.738;9.228;2023-02-24T13:50:19;10.80;1.00
336;DHT22;156;48.738;9.228;2023-02-24T13:55:49;10.80;1.00
336;DHT22;156;48.738;9.228;2023-02-24T13:58:39;10.80;1.00
336;DHT22;156;48.738;9.228;2023-02-24T14:01:12;10.90;1.00
336;DHT22;156;48.738;9.228;2023-02-24T14:03:41;10.90;1.00
336;DHT22;156;48.738;9.228;2023-02-24T14:06:14;11.00;1.00
336;DHT22;156;48.738;9.228;2023-02-24T14:08:46;11.10;1.00
336;DHT22;156;48.738;9.228;2023-02-24T14:11:16;11.10;1.00
336;DHT22;156;48.738;9.228;2023-02-24T14:13:49;11.00;1.00
336;DHT22;156;48.738;9.228;2023-02-24T14:16:20;10.90;1.00
336;DHT22;156;48.738;9.228;2023-02-24T14:18:52;11.00;1.00
336;DHT22;156;48.738;9.228;2023-02-24T14:21:22;11.00;1.00
336;DHT22;156;48.738;9.228;2023-02-24T14:23:56;10.90;1.00
336;DHT22;156;48.738;9.228;2023-02-24T14:26:23;10.80;1.00
336;DHT22;156;48.738;9.228;2023-02-24T14:28:55;10.50;1.00
336;DHT22;156;48.738;9.228;2023-02-24T14:31:23;10.50;1.00
336;DHT22;156;48.738;9.228;2023-02-24T14:33:57;10.50;1.00
336;DHT22;156;48.738;9.228;2023-02-24T14:36:27;10.40;1.00
336;DHT22;156;48.738;9.228;2023-02-24T14:39:03;10.30;1.00
336;DHT22;156;48.738;9.228;2023-02-24T14:41:33;10.10;1.00
336;DHT22;156;48.738;9.228;2023-02-24T14:44:07;9.90;1.00
336;DHT22;156;48.738;9.228;2023-02-24T14:46:45;9.70;1.00
336;DHT22;156;48.738;9.228;2023-02-24T14:49:20;9.70;1.00
336;DHT22;156;48.738;9.228;2023-02-24T14:51:49;9.60;1.00
336;DHT22;156;48.738;9.228;2023-02-24T14:54:35;9.60;1.00
336;DHT22;156;48.738;9.228;2023-02-24T14:57:03;9.70;1.00
336;DHT22;156;48.738;9.228;2023-02-24T14:59:33;9.60;1.00
336;DHT22;156;48.738;9.228;2023-02-24T15:02:03;9.50;1.00
336;DHT22;156;48.738;9.228;2023-02-24T15:04:33;9.50;1.00
336;DHT22;156;48.738;9.228;2023-02-24T15:07:04;9.60;1.00
336;DHT22;156;48.738;9.228;2023-02-24T15:09:41;9.60;1.00
336;DHT22;156;48.738;9.228;2023-02-24T15:12:12;9.50;1.00
336;DHT22;156;48.738;9.228;2023-02-24T15:14:50;9.60;1.00
336;DHT22;156;48.738;9.228;2023-02-24T15:17:20;9.50;1.00
336;DHT22;156;48.738;9.228;2023-02-24T15:19:48;9.60;1.00
336;DHT22;156;48.738;9.228;2023-02-24T15:22:21;9.60;1.00
336;DHT22;156;48.738;9.228;2023-02-24T15:24:51;9.60;1.00
336;DHT22;156;48.738;9.228;2023-02-24T15:27:25;9.60;1.00
336;DHT22;156;48.738;9.228;2023-02-24T15:29:59;9.60;1.00
336;DHT22;156;48.738;9.228;2023-02-24T15:32:28;9.60;1.00
336;DHT22;156;48.738;9.228;2023-02-24T15:34:55;9.50;1.00
336;DHT22;156;48.738;9.228;2023-02-24T15:37:24;9.50;1.00
336;DHT22;156;48.738;9.228;2023-02-24T15:40:03;9.60;1.00
336;DHT22;156;48.738;9.228;2023-02-24T15:42:32;9.50;1.00
336;DHT22;156;48.738;9.228;2023-02-24T15:45:01;9.50;1.00
336;DHT22;156;48.738;9.228;2023-02-24T15:47:29;9.50;1.00
336;DHT22;156;48.738;9.228;2023-02-24T15:49:57;9.40;1.00
336;DHT22;156;48.738;9.228;2023-02-24T15:52:26;9.50;1.00
336;DHT22;156;48.738;9.228;2023-02-24T15:54:55;9.40;1.00
336;DHT22;156;48.738;9.228;2023-02-24T15:57:25;9.40;1.00
336;DHT22;156;48.738;9.228;2023-02-24T15:59:52;9.30;1.00
336;DHT22;156;48.738;9.228;2023-02-24T16:02:21;9.30;1.00
336;DHT22;156;48.738;9.228;2023-02-24T16:04:49;9.20;1.00
336;DHT22;156;48.738;9.228;2023-02-24T16:07:19;9.20;1.00
336;DHT22;156;48.738;9.228;2023-02-24T16:09:47;9.20;1.00
336;DHT22;156;48.738;9.228;2023-02-24T16:12:20;9.20;1.00
336;DHT22;156;48.738;9.228;2023-02-24T16:14:48;9.10;1.00
336;DHT22;156;48.738;9.228;2023-02-24T16:17:27;8.90;1.00
336;DHT22;156;48.738;9.228;2023-02-24T16:19:55;8.80;1.00
336;DHT22;156;48.738;9.228;2023-02-24T16:22:22;8.70;1.00
336;DHT22;156;48.738;9.228;2023-02-24T16:24:50;8.50;3.30
336;DHT22;156;48.738;9.228;2023-02-24T16:27:20;8.40;15.90
336;DHT22;156;48.738;9.228;2023-02-24T16:29:48;8.30;24.60
336;DHT22;156;48.738;9.228;2023-02-24T16:32:15;8.30;29.40
336;DHT22;156;48.738;9.228;2023-02-24T16:34:42;8.20;29.70
336;DHT22;156;48.738;9.228;2023-02-24T16:37:15;8.20;40.40
336;DHT22;156;48.738;9.228;2023-02-24T16:39:43;8.10;45.00
336;DHT22;156;48.738;9.228;2023-02-24T16:42:10;8.10;52.70
336;DHT22;156;48.738;9.228;2023-02-24T16:44:38;8.10;58.60
336;DHT22;156;48.738;9.228;2023-02-24T16:47:06;8.00;64.30
336;DHT22;156;48.738;9.228;2023-02-24T16:49:33;8.00;67.60
336;DHT22;156;48.738;9.228;2023-02-24T16:52:00;7.90;79.90
336;DHT22;156;48.738;9.228;2023-02-24T16:54:27;7.80;84.40
336;DHT22;156;48.738;9.228;2023-02-24T16:56:54;7.80;90.50
336;DHT22;156;48.738;9.228;2023-02-24T16:59:21;7.80;92.90
336;DHT22;156;48.738;9.228;2023-02-24T17:01:49;7.80;98.00
336;DHT22;156;48.738;9.228;2023-02-24T17:04:17;7.70;99.90
336;DHT22;156;48.738;9.228;2023-02-24T17:06:44;7.70;99.90
336;DHT22;156;48.738;9.228;2023-02-24T17:09:11;7.70;99.90
336;DHT22;156;48.738;9.228;2023-02-24T17:11:40;7.70;99.90
336;DHT22;156;48.738;9.228;2023-02-24T17:14:11;7.80;99.90
336;DHT22;156;48.738;9.228;2023-02-24T17:16:40;7.80;99.90
336;DHT22;156;48.738;9.228;2023-02-24T17:19:08;7.80;99.90
336;DHT22;156;48.738;9.228;2023-02-24T17:21:37;7.70;99.90
336;DHT22;156;48.738;9.228;2023-02-24T17:24:05;7.70;99.90
336;DHT22;156;48.738;9.228;2023-02-24T17:26:32;7.70;99.90
336;DHT22;156;48.738;9.228;2023-02-24T17:28:59;7.60;99.90
336;DHT22;156;48.738;9.228;2023-02-24T17:31:26;7.60;99.90
336;DHT22;156;48.738;9.228;2023-02-24T17:33:56;7.60;99.90
336;DHT22;156;48.738;9.228;2023-02-24T17:36:24;7.60;99.90
336;DHT22;156;48.738;9.228;2023-02-24T17:38:51;7.60;99.90